Time;durP1;ratioP1;P1;durP2;ratioP2;P2;SDS_P1;SDS_P2;PMS_P1;PMS_P2;Temp;Humidity;BMP_temperature;BMP_pressure;BME280_temperature;BME280_humidity;BME280_pressure;Samples;Min_cycle;Max_cycle;Signal;HPM_P1;HPM_P2
2021/12/28 00:00:12;;;;;;;208.57;96.83;;;;;;;;;;768901;182;918773;-63
2021/12/28 00:02:38;;;;;;;205.07;91.83;;;;;;;;;;767240;183;919206;-64
2021/12/28 00:05:04;;;;;;;187.90;91.00;;;;;;;;;;771395;183;920167;-64
2021/12/28 00:07:29;;;;;;;202.45;94.28;;;;;;;;;;761931;183;919599;-64
2021/12/28 00:09:55;;;;;;;194.80;96.00;;;;;;;;;;764299;183;918825;-64
2021/12/28 00:12:21;;;;;;;214.87;95.47;;;;;;;;;;769330;183;918551;-64
2021/12/28 00:15:02;;;;;;;222.87;98.87;;;;;;;;;;761047;183;919855;-64
2021/12/28 00:19:46;;;;;;;183.23;87.97;;;;;;;;;;766818;182;919286;-63
2021/12/28 00:22:12;;;;;;;218.00;97.97;;;;;;;;;;771303;183;1020932;-62
2021/12/28 00:24:38;;;;;;;207.37;92.10;;;;;;;;;;760325;182;920512;-64
2021/12/28 00:27:04;;;;;;;209.97;97.43;;;;;;;;;;767159;182;924080;-64
2021/12/28 00:29:30;;;;;;;203.97;97.53;;;;;;;;;;774724;182;918901;-64
2021/12/28 00:31:56;;;;;;;200.05;91.68;;;;;;;;;;767954;180;924182;-64
2021/12/28 00:34:22;;;;;;;210.33;99.77;;;;;;;;;;762332;183;919359;-64
2021/12/28 00:36:47;;;;;;;198.90;93.20;;;;;;;;;;761800;183;1018935;-65
2021/12/28 00:39:13;;;;;;;199.40;92.97;;;;;;;;;;766412;183;918873;-64
2021/12/28 00:41:39;;;;;;;212.70;94.87;;;;;;;;;;762975;182;919331;-64
2021/12/28 00:44:05;;;;;;;197.62;99.62;;;;;;;;;;765437;182;919871;-64
2021/12/28 00:46:31;;;;;;;207.90;97.77;;;;;;;;;;768052;182;920069;-64
2021/12/28 00:48:57;;;;;;;212.97;97.50;;;;;;;;;;766373;183;918322;-64
2021/12/28 00:51:23;;;;;;;190.52;96.28;;;;;;;;;;764390;183;918954;-63
2021/12/28 00:53:48;;;;;;;229.63;101.10;;;;;;;;;;770311;183;919969;-64
2021/12/28 00:56:14;;;;;;;201.73;92.90;;;;;;;;;;765276;183;1226885;-64
2021/12/28 00:58:40;;;;;;;212.97;100.57;;;;;;;;;;762882;182;920837;-65
2021/12/28 01:01:06;;;;;;;189.53;99.13;;;;;;;;;;769182;182;915062;-65
2021/12/28 01:03:34;;;;;;;213.20;96.33;;;;;;;;;;772873;180;1008185;-64
2021/12/28 01:05:58;;;;;;;206.50;93.63;;;;;;;;;;767776;181;915386;-64
2021/12/28 01:08:25;;;;;;;210.77;96.57;;;;;;;;;;766570;182;920008;-64
2021/12/28 01:10:49;;;;;;;211.47;96.73;;;;;;;;;;770245;180;919310;-65
2021/12/28 01:13:15;;;;;;;209.20;101.20;;;;;;;;;;764989;182;918839;-68
2021/12/28 01:15:41;;;;;;;203.13;97.03;;;;;;;;;;762827;183;919630;-65
2021/12/28 01:18:07;;;;;;;217.53;99.37;;;;;;;;;;774473;182;919548;-65
2021/12/28 01:20:33;;;;;;;201.00;92.60;;;;;;;;;;767818;183;919210;-64
2021/12/28 01:22:59;;;;;;;199.10;92.03;;;;;;;;;;767770;183;920543;-64
2021/12/28 01:25:25;;;;;;;208.02;101.80;;;;;;;;;;768717;183;919411;-62
2021/12/28 01:27:51;;;;;;;218.77;100.50;;;;;;;;;;765307;180;913577;-64
2021/12/28 01:30:17;;;;;;;219.37;98.30;;;;;;;;;;762829;180;916614;-65
2021/12/28 01:32:42;;;;;;;204.20;91.40;;;;;;;;;;764964;182;918939;-65
2021/12/28 01:35:08;;;;;;;224.30;104.27;;;;;;;;;;771682;180;918278;-66
2021/12/28 01:37:34;;;;;;;226.03;98.13;;;;;;;;;;765223;182;919650;-63
2021/12/28 01:40:00;;;;;;;218.30;99.85;;;;;;;;;;769401;182;918372;-64
2021/12/28 01:42:28;;;;;;;193.97;101.90;;;;;;;;;;771003;183;919523;-63
2021/12/28 01:44:52;;;;;;;215.90;99.73;;;;;;;;;;766343;183;918704;-64
2021/12/28 01:47:18;;;;;;;213.90;96.13;;;;;;;;;;765848;182;919388;-63
2021/12/28 01:49:43;;;;;;;220.07;105.57;;;;;;;;;;775868;182;918325;-64
2021/12/28 01:52:09;;;;;;;214.27;100.72;;;;;;;;;;766196;183;1020750;-64
2021/12/28 01:54:35;;;;;;;214.83;101.23;;;;;;;;;;766046;183;931477;-63
2021/12/28 01:57:01;;;;;;;215.27;98.77;;;;;;;;;;765671;183;918937;-64
2021/12/28 01:59:27;;;;;;;211.80;99.63;;;;;;;;;;773522;182;918990;-65
2021/12/28 02:01:53;;;;;;;218.07;95.90;;;;;;;;;;763445;182;919580;-64
2021/12/28 02:04:19;;;;;;;220.82;100.38;;;;;;;;;;762304;183;919502;-64
2021/12/28 02:06:45;;;;;;;218.67;103.63;;;;;;;;;;768371;183;936141;-65
2021/12/28 02:09:11;;;;;;;205.00;100.07;;;;;;;;;;768386;183;919627;-64
2021/12/28 02:11:37;;;;;;;202.73;101.90;;;;;;;;;;763555;180;918888;-63
2021/12/28 02:14:05;;;;;;;209.60;96.80;;;;;;;;;;770924;182;918107;-65
2021/12/28 02:16:29;;;;;;;215.60;99.67;;;;;;;;;;772388;180;918532;-64
2021/12/28 02:18:55;;;;;;;199.57;97.70;;;;;;;;;;774762;182;918773;-64
2021/12/28 02:21:20;;;;;;;231.37;105.20;;;;;;;;;;769069;182;630063;-65
2021/12/28 02:23:46;;;;;;;202.67;98.73;;;;;;;;;;775637;182;919701;-64
2021/12/28 02:26:12;;;;;;;211.53;94.67;;;;;;;;;;766653;182;919335;-64
2021/12/28 02:28:38;;;;;;;211.80;98.00;;;;;;;;;;768328;182;918980;-64
2021/12/28 02:31:04;;;;;;;223.33;96.30;;;;;;;;;;773456;182;918409;-64
2021/12/28 02:33:30;;;;;;;229.27;100.87;;;;;;;;;;768548;182;919408;-64
2021/12/28 02:35:55;;;;;;;225.87;101.20;;;;;;;;;;767561;183;629696;-64
2021/12/28 02:38:21;;;;;;;215.63;98.47;;;;;;;;;;767968;183;919601;-64
2021/12/28 02:40:47;;;;;;;223.80;103.23;;;;;;;;;;766463;183;1020393;-64
2021/12/28 02:43:13;;;;;;;222.40;102.90;;;;;;;;;;767023;183;919318;-64
2021/12/28 02:45:39;;;;;;;209.03;98.90;;;;;;;;;;767275;182;918823;-64
2021/12/28 02:48:05;;;;;;;200.87;97.13;;;;;;;;;;756960;186;918817;-64
2021/12/28 02:50:33;;;;;;;213.67;95.90;;;;;;;;;;769161;179;635647;-64
2021/12/28 02:52:59;;;;;;;219.57;99.67;;;;;;;;;;764454;182;919082;-64
2021/12/28 02:55:25;;;;;;;212.77;99.87;;;;;;;;;;771577;183;894514;-64
2021/12/28 02:57:51;;;;;;;229.30;108.07;;;;;;;;;;767680;183;614902;-65
2021/12/28 03:00:23;;;;;;;220.53;105.50;;;;;;;;;;767814;183;919678;-65
2021/12/28 03:02:49;;;;;;;198.57;98.73;;;;;;;;;;768538;182;919350;-64
2021/12/28 03:05:14;;;;;;;225.80;103.67;;;;;;;;;;774146;179;917693;-63
2021/12/28 03:07:40;;;;;;;211.83;99.87;;;;;;;;;;768299;183;917061;-64
2021/12/28 03:10:06;;;;;;;272.57;117.27;;;;;;;;;;760964;182;916460;-64
2021/12/28 03:12:32;;;;;;;206.70;105.27;;;;;;;;;;774110;182;915605;-63
2021/12/28 03:14:58;;;;;;;278.87;125.10;;;;;;;;;;765788;183;914371;-63
2021/12/28 03:17:24;;;;;;;271.03;111.20;;;;;;;;;;766101;183;918482;-64
2021/12/28 03:19:50;;;;;;;286.13;124.87;;;;;;;;;;767117;183;1021350;-64
2021/12/28 03:22:16;;;;;;;319.53;140.67;;;;;;;;;;766082;183;919456;-63
2021/12/28 03:24:42;;;;;;;262.90;115.37;;;;;;;;;;765090;182;920179;-64
2021/12/28 03:27:07;;;;;;;219.13;106.63;;;;;;;;;;769219;180;919283;-64
2021/12/28 03:29:33;;;;;;;243.43;119.07;;;;;;;;;;767987;182;919471;-64
2021/12/28 03:31:59;;;;;;;279.47;124.73;;;;;;;;;;761984;182;918921;-64
2021/12/28 03:34:25;;;;;;;221.43;104.27;;;;;;;;;;768712;182;919173;-64
2021/12/28 03:36:51;;;;;;;238.75;107.47;;;;;;;;;;771563;182;919493;-63
2021/12/28 03:39:17;;;;;;;268.20;124.07;;;;;;;;;;763578;182;919237;-63
2021/12/28 03:41:43;;;;;;;275.70;121.83;;;;;;;;;;767926;182;919978;-64
2021/12/28 03:44:09;;;;;;;325.13;145.37;;;;;;;;;;773759;182;626279;-64
2021/12/28 03:46:35;;;;;;;344.47;152.00;;;;;;;;;;770582;179;918058;-64
2021/12/28 03:49:00;;;;;;;305.37;140.33;;;;;;;;;;766654;183;1021831;-64
2021/12/28 03:51:26;;;;;;;237.98;106.22;;;;;;;;;;767327;183;919782;-63
2021/12/28 03:53:52;;;;;;;268.73;122.80;;;;;;;;;;762283;183;919392;-64
2021/12/28 03:56:18;;;;;;;230.80;107.70;;;;;;;;;;761229;183;918146;-63
2021/12/28 03:58:44;;;;;;;233.73;112.70;;;;;;;;;;768390;182;919829;-65
2021/12/28 04:01:10;;;;;;;227.57;110.07;;;;;;;;;;772620;183;919647;-64
2021/12/28 04:03:36;;;;;;;212.53;104.97;;;;;;;;;;768867;183;919597;-64
2021/12/28 04:06:07;;;;;;;222.57;104.60;;;;;;;;;;769080;180;919623;-63
2021/12/28 04:08:28;;;;;;;421.77;175.83;;;;;;;;;;772001;183;918612;-65
2021/12/28 04:11:01;;;;;;;229.77;111.88;;;;;;;;;;767654;180;919687;-63
2021/12/28 04:13:19;;;;;;;221.50;99.50;;;;;;;;;;765980;182;918853;-63
2021/12/28 04:15:45;;;;;;;239.07;108.90;;;;;;;;;;773461;182;922053;-64
2021/12/28 04:18:12;;;;;;;218.67;105.17;;;;;;;;;;764337;182;921428;-63
2021/12/28 04:20:38;;;;;;;216.33;100.97;;;;;;;;;;761035;183;919613;-64
2021/12/28 04:23:04;;;;;;;205.10;97.67;;;;;;;;;;766447;183;918045;-64
2021/12/28 04:25:31;;;;;;;227.73;105.55;;;;;;;;;;768278;183;920397;-64
2021/12/28 04:27:55;;;;;;;220.10;107.37;;;;;;;;;;765325;182;1433546;-64
2021/12/28 04:30:21;;;;;;;219.17;100.80;;;;;;;;;;767457;182;919124;-64
2021/12/28 04:32:47;;;;;;;207.70;101.43;;;;;;;;;;769574;182;919180;-63
2021/12/28 04:35:14;;;;;;;200.70;107.10;;;;;;;;;;765845;182;919585;-61
2021/12/28 04:37:39;;;;;;;220.67;105.87;;;;;;;;;;761735;182;918191;-64
2021/12/28 04:40:06;;;;;;;222.35;102.97;;;;;;;;;;771804;180;916173;-64
2021/12/28 04:42:32;;;;;;;213.03;105.43;;;;;;;;;;768050;183;918468;-64
2021/12/28 04:44:57;;;;;;;219.90;104.17;;;;;;;;;;769742;182;920531;-64
2021/12/28 04:47:23;;;;;;;217.63;102.93;;;;;;;;;;770335;182;919290;-64
2021/12/28 04:49:49;;;;;;;211.83;108.70;;;;;;;;;;772094;183;918862;-64
2021/12/28 04:52:15;;;;;;;256.80;109.57;;;;;;;;;;764155;180;919411;-63
2021/12/28 04:54:41;;;;;;;230.43;110.07;;;;;;;;;;767530;183;919503;-64
2021/12/28 04:57:07;;;;;;;241.30;114.20;;;;;;;;;;772257;183;920051;-63
2021/12/28 04:59:32;;;;;;;234.27;110.50;;;;;;;;;;765124;182;919038;-64
2021/12/28 05:01:58;;;;;;;238.67;110.07;;;;;;;;;;762923;182;918809;-64
2021/12/28 05:04:24;;;;;;;221.80;100.23;;;;;;;;;;767035;183;918408;-63
2021/12/28 05:06:50;;;;;;;229.67;115.03;;;;;;;;;;764077;183;918938;-63
2021/12/28 05:09:18;;;;;;;238.05;106.25;;;;;;;;;;764758;183;920221;-64
2021/12/28 05:11:42;;;;;;;222.77;107.10;;;;;;;;;;764992;183;919806;-64
2021/12/28 05:14:08;;;;;;;220.30;104.57;;;;;;;;;;773287;180;922556;-64
2021/12/28 05:16:34;;;;;;;217.90;104.00;;;;;;;;;;768043;179;919713;-63
2021/12/28 05:18:59;;;;;;;233.57;104.73;;;;;;;;;;766147;183;1123055;-64
2021/12/28 05:21:25;;;;;;;201.40;101.10;;;;;;;;;;772501;183;896811;-64
2021/12/28 05:23:51;;;;;;;229.30;102.33;;;;;;;;;;765221;183;1123978;-63
2021/12/28 05:26:17;;;;;;;228.93;103.87;;;;;;;;;;766132;182;917104;-63
2021/12/28 05:28:43;;;;;;;219.77;99.37;;;;;;;;;;769890;182;918277;-64
2021/12/28 05:31:09;;;;;;;207.43;99.62;;;;;;;;;;763454;182;918033;-63
2021/12/28 05:33:35;;;;;;;226.63;106.03;;;;;;;;;;765044;182;1037813;-64
2021/12/28 05:36:00;;;;;;;223.33;102.17;;;;;;;;;;765595;179;920706;-63
2021/12/28 05:38:26;;;;;;;208.97;101.13;;;;;;;;;;769937;182;919619;-65
2021/12/28 05:40:52;;;;;;;215.27;98.77;;;;;;;;;;765748;182;921932;-64
2021/12/28 05:43:18;;;;;;;214.23;97.77;;;;;;;;;;765079;182;918243;-64
2021/12/28 05:45:44;;;;;;;236.17;107.77;;;;;;;;;;772206;179;919174;-64
2021/12/28 05:48:10;;;;;;;233.55;108.97;;;;;;;;;;766045;183;919430;-63
2021/12/28 05:50:35;;;;;;;203.60;97.70;;;;;;;;;;765024;179;921591;-64
2021/12/28 05:53:01;;;;;;;236.53;102.73;;;;;;;;;;778320;182;616846;-64
2021/12/28 05:55:27;;;;;;;219.10;105.53;;;;;;;;;;774727;182;629999;-63
2021/12/28 05:57:53;;;;;;;216.53;101.13;;;;;;;;;;771115;182;627005;-64
2021/12/28 06:00:19;;;;;;;222.87;102.47;;;;;;;;;;773000;182;915505;-63
2021/12/28 06:02:45;;;;;;;234.00;107.07;;;;;;;;;;766024;182;915896;-63
2021/12/28 06:05:11;;;;;;;213.67;99.57;;;;;;;;;;765862;182;917790;-64
2021/12/28 06:07:36;;;;;;;229.70;108.77;;;;;;;;;;768507;183;918932;-64
2021/12/28 06:10:02;;;;;;;197.77;93.93;;;;;;;;;;771368;182;919160;-63
2021/12/28 06:12:28;;;;;;;226.90;101.60;;;;;;;;;;764800;182;919591;-64
2021/12/28 06:14:54;;;;;;;225.40;101.03;;;;;;;;;;765764;182;919746;-65
2021/12/28 06:17:21;;;;;;;219.90;104.40;;;;;;;;;;772127;182;997664;-64
2021/12/28 06:19:46;;;;;;;221.30;106.77;;;;;;;;;;766934;182;919236;-64
2021/12/28 06:22:12;;;;;;;226.00;101.70;;;;;;;;;;766026;181;1020721;-64
2021/12/28 06:24:37;;;;;;;207.73;102.80;;;;;;;;;;771299;182;918629;-65
2021/12/28 06:27:04;;;;;;;218.15;103.03;;;;;;;;;;767165;182;919399;-64
2021/12/28 06:29:29;;;;;;;218.85;101.45;;;;;;;;;;764315;182;920154;-64
2021/12/28 06:31:55;;;;;;;215.43;102.87;;;;;;;;;;767836;182;919261;-64
2021/12/28 06:34:21;;;;;;;224.93;97.97;;;;;;;;;;755209;184;918613;-65
2021/12/28 06:36:47;;;;;;;215.63;98.80;;;;;;;;;;765006;180;919651;-65
2021/12/28 06:39:13;;;;;;;202.03;102.33;;;;;;;;;;764716;182;918744;-63
2021/12/28 06:41:39;;;;;;;213.30;100.70;;;;;;;;;;771744;182;918718;-64
2021/12/28 06:44:05;;;;;;;209.50;99.47;;;;;;;;;;765602;182;923329;-64
2021/12/28 06:46:31;;;;;;;218.77;101.87;;;;;;;;;;766068;182;920226;-63
2021/12/28 06:48:57;;;;;;;214.33;102.17;;;;;;;;;;771043;183;918564;-63
2021/12/28 06:51:23;;;;;;;207.37;98.60;;;;;;;;;;764356;182;918863;-64
2021/12/28 06:53:49;;;;;;;209.53;95.70;;;;;;;;;;765527;183;915995;-64
2021/12/28 06:56:15;;;;;;;195.73;94.00;;;;;;;;;;765434;182;1011404;-63
2021/12/28 06:58:41;;;;;;;198.20;91.03;;;;;;;;;;772833;180;914969;-64
2021/12/28 07:01:06;;;;;;;227.53;98.53;;;;;;;;;;765313;182;921515;-63
2021/12/28 07:03:32;;;;;;;194.73;90.47;;;;;;;;;;767908;182;920208;-62
2021/12/28 07:05:58;;;;;;;184.53;92.90;;;;;;;;;;773297;182;920285;-64
2021/12/28 07:08:24;;;;;;;207.40;99.17;;;;;;;;;;769061;182;918987;-64
2021/12/28 07:10:50;;;;;;;206.07;96.07;;;;;;;;;;766685;183;918153;-64
2021/12/28 07:13:16;;;;;;;194.07;91.03;;;;;;;;;;767836;183;918944;-63
2021/12/28 07:15:41;;;;;;;219.47;99.63;;;;;;;;;;759029;183;918754;-64
2021/12/28 07:18:07;;;;;;;219.60;99.70;;;;;;;;;;768220;182;919991;-64
2021/12/28 07:20:33;;;;;;;204.43;99.13;;;;;;;;;;769791;183;918740;-64
2021/12/28 07:22:59;;;;;;;202.47;100.67;;;;;;;;;;766649;182;918098;-64
2021/12/28 07:25:25;;;;;;;200.23;95.77;;;;;;;;;;762076;182;919219;-63
2021/12/28 07:27:51;;;;;;;176.53;87.40;;;;;;;;;;765898;183;919096;-63
2021/12/28 07:30:16;;;;;;;168.80;86.57;;;;;;;;;;773258;182;918084;-64
2021/12/28 07:32:42;;;;;;;187.30;88.23;;;;;;;;;;766078;182;920227;-62
2021/12/28 07:35:08;;;;;;;169.70;80.67;;;;;;;;;;766937;183;918921;-63
2021/12/28 07:37:34;;;;;;;164.03;80.20;;;;;;;;;;760431;184;918776;-63
2021/12/28 07:40:00;;;;;;;184.93;85.00;;;;;;;;;;768523;182;919038;-64
2021/12/28 07:42:26;;;;;;;179.03;78.80;;;;;;;;;;770476;183;625623;-63
2021/12/28 07:44:52;;;;;;;178.67;83.47;;;;;;;;;;771024;183;923415;-64
2021/12/28 07:47:18;;;;;;;166.77;72.00;;;;;;;;;;765662;182;919541;-65
2021/12/28 07:49:44;;;;;;;142.60;69.70;;;;;;;;;;766747;182;919529;-63
2021/12/28 07:52:09;;;;;;;153.77;71.13;;;;;;;;;;765746;182;918758;-63
2021/12/28 07:54:35;;;;;;;142.30;68.33;;;;;;;;;;766032;183;918928;-62
2021/12/28 07:57:01;;;;;;;132.73;64.10;;;;;;;;;;765279;183;918731;-62
2021/12/28 07:59:27;;;;;;;136.50;64.65;;;;;;;;;;764916;182;919461;-62
2021/12/28 08:01:53;;;;;;;133.47;60.37;;;;;;;;;;770057;182;925261;-62
2021/12/28 08:04:19;;;;;;;104.37;56.60;;;;;;;;;;765070;183;919124;-63
2021/12/28 08:06:45;;;;;;;121.27;56.53;;;;;;;;;;764194;183;917166;-62
2021/12/28 08:09:10;;;;;;;123.43;56.93;;;;;;;;;;772959;182;917355;-62
2021/12/28 08:11:36;;;;;;;126.17;54.40;;;;;;;;;;762890;183;1017170;-62
2021/12/28 08:14:02;;;;;;;104.37;51.47;;;;;;;;;;764116;181;1011036;-61
2021/12/28 08:16:28;;;;;;;118.03;55.77;;;;;;;;;;768483;182;919483;-60
2021/12/28 08:18:54;;;;;;;118.97;56.37;;;;;;;;;;765041;182;919755;-63
2021/12/28 08:21:20;;;;;;;113.67;51.90;;;;;;;;;;759930;182;919438;-62
2021/12/28 08:23:46;;;;;;;92.43;47.13;;;;;;;;;;768906;182;1020813;-61
2021/12/28 08:26:12;;;;;;;100.27;50.20;;;;;;;;;;772269;182;917217;-60
2021/12/28 08:28:37;;;;;;;106.57;48.67;;;;;;;;;;768545;182;918917;-61
2021/12/28 08:31:03;;;;;;;100.63;48.90;;;;;;;;;;770458;182;918206;-61
2021/12/28 08:33:29;;;;;;;85.60;43.43;;;;;;;;;;771238;182;968702;-61
2021/12/28 08:35:56;;;;;;;87.07;45.00;;;;;;;;;;765948;182;939903;-61
2021/12/28 08:38:21;;;;;;;93.23;46.43;;;;;;;;;;769165;182;918684;-62
2021/12/28 08:40:47;;;;;;;97.57;45.97;;;;;;;;;;772351;182;917791;-62
2021/12/28 08:43:13;;;;;;;87.23;46.00;;;;;;;;;;772830;182;618650;-61
2021/12/28 08:45:39;;;;;;;102.23;46.73;;;;;;;;;;771778;182;631419;-63
2021/12/28 08:48:05;;;;;;;86.60;45.60;;;;;;;;;;770345;182;632442;-63
2021/12/28 08:50:30;;;;;;;93.87;43.73;;;;;;;;;;773295;182;639833;-63
2021/12/28 08:52:56;;;;;;;133.57;62.63;;;;;;;;;;768764;182;639595;-63
2021/12/28 08:55:22;;;;;;;147.40;69.70;;;;;;;;;;769745;182;638722;-65
2021/12/28 08:57:48;;;;;;;153.30;65.57;;;;;;;;;;774451;182;639291;-63
2021/12/28 09:00:14;;;;;;;148.13;65.37;;;;;;;;;;771111;182;631656;-62
2021/12/28 09:02:40;;;;;;;154.17;67.63;;;;;;;;;;770511;182;623175;-64
2021/12/28 09:05:06;;;;;;;136.43;57.93;;;;;;;;;;774490;180;622496;-64
2021/12/28 09:07:31;;;;;;;145.50;59.43;;;;;;;;;;770046;182;641608;-63
2021/12/28 09:09:58;;;;;;;124.30;56.80;;;;;;;;;;770704;182;628978;-63
2021/12/28 09:12:23;;;;;;;92.60;44.43;;;;;;;;;;770155;182;625274;-63
2021/12/28 09:14:49;;;;;;;106.90;46.23;;;;;;;;;;772348;182;615368;-64
2021/12/28 09:17:15;;;;;;;78.43;38.97;;;;;;;;;;770278;182;623951;-65
2021/12/28 09:19:41;;;;;;;78.90;38.07;;;;;;;;;;768926;182;643048;-63
2021/12/28 09:22:06;;;;;;;69.80;35.80;;;;;;;;;;773008;182;624838;-63
2021/12/28 09:24:32;;;;;;;59.30;32.60;;;;;;;;;;770621;182;619016;-63
2021/12/28 09:26:58;;;;;;;56.70;30.97;;;;;;;;;;774471;180;632480;-63
2021/12/28 09:29:29;;;;;;;52.17;25.40;;;;;;;;;;774526;182;621427;-63
2021/12/28 09:31:51;;;;;;;45.53;22.40;;;;;;;;;;768509;183;918282;-62
2021/12/28 09:34:16;;;;;;;47.73;28.33;;;;;;;;;;765327;182;919572;-62
2021/12/28 09:36:42;;;;;;;49.47;26.10;;;;;;;;;;768979;182;852622;-62
2021/12/28 09:39:08;;;;;;;57.20;27.27;;;;;;;;;;771473;182;648145;-62
2021/12/28 09:41:34;;;;;;;55.07;26.50;;;;;;;;;;771770;182;628794;-63
2021/12/28 09:44:00;;;;;;;46.60;23.03;;;;;;;;;;768948;182;642697;-62
2021/12/28 09:46:26;;;;;;;43.27;21.67;;;;;;;;;;773717;182;629107;-63
2021/12/28 09:48:52;;;;;;;47.70;24.90;;;;;;;;;;770573;182;624828;-62
2021/12/28 09:51:17;;;;;;;45.23;23.60;;;;;;;;;;770100;182;633753;-62
2021/12/28 09:53:43;;;;;;;49.23;24.60;;;;;;;;;;773870;182;623525;-63
2021/12/28 09:56:09;;;;;;;51.77;25.57;;;;;;;;;;769207;183;624911;-62
2021/12/28 09:58:35;;;;;;;43.10;23.83;;;;;;;;;;771842;183;624880;-63
2021/12/28 10:01:02;;;;;;;43.83;23.20;;;;;;;;;;770946;183;630606;-63
2021/12/28 10:03:28;;;;;;;61.47;27.35;;;;;;;;;;767314;180;875632;-62
2021/12/28 10:05:54;;;;;;;46.30;23.27;;;;;;;;;;769741;183;906768;-63
2021/12/28 10:08:20;;;;;;;54.57;25.67;;;;;;;;;;771433;183;633341;-63
2021/12/28 10:10:47;;;;;;;63.80;27.50;;;;;;;;;;775148;182;624045;-62
2021/12/28 10:13:20;;;;;;;52.43;23.93;;;;;;;;;;768555;183;628088;-63
2021/12/28 10:15:45;;;;;;;44.20;24.43;;;;;;;;;;770107;180;628613;-63
2021/12/28 10:18:11;;;;;;;48.40;26.30;;;;;;;;;;772759;182;640263;-63
2021/12/28 10:20:52;;;;;;;51.60;28.07;;;;;;;;;;772908;182;913318;-62
2021/12/28 10:23:18;;;;;;;45.67;23.67;;;;;;;;;;769520;183;899568;-63
2021/12/28 10:25:44;;;;;;;56.90;28.40;;;;;;;;;;769893;182;619982;-62
2021/12/28 10:28:10;;;;;;;51.13;25.47;;;;;;;;;;770661;182;662849;-63
2021/12/28 10:30:36;;;;;;;48.30;24.53;;;;;;;;;;775784;182;628242;-64
2021/12/28 10:33:03;;;;;;;45.93;23.50;;;;;;;;;;766960;182;918077;-63
2021/12/28 10:35:28;;;;;;;39.13;19.67;;;;;;;;;;765307;183;908978;-64
2021/12/28 10:37:54;;;;;;;26.37;14.40;;;;;;;;;;773341;181;909309;-64
2021/12/28 10:40:20;;;;;;;32.70;18.60;;;;;;;;;;769116;182;915047;-64
2021/12/28 10:42:49;;;;;;;29.20;15.50;;;;;;;;;;768132;182;644547;-65
2021/12/28 10:45:20;;;;;;;31.50;19.17;;;;;;;;;;770293;183;628407;-65
2021/12/28 10:47:46;;;;;;;34.47;20.43;;;;;;;;;;775557;182;919370;-64
2021/12/28 10:50:34;;;;;;;38.17;20.27;;;;;;;;;;774482;182;615161;-65
2021/12/28 10:53:04;;;;;;;34.80;19.67;;;;;;;;;;771679;182;622795;-64
2021/12/28 10:55:26;;;;;;;33.87;20.03;;;;;;;;;;771086;182;630641;-64
2021/12/28 10:57:52;;;;;;;40.80;19.93;;;;;;;;;;770791;182;678805;-64
2021/12/28 11:00:20;;;;;;;43.20;20.63;;;;;;;;;;773224;180;622499;-64
2021/12/28 11:02:46;;;;;;;38.70;19.10;;;;;;;;;;771016;183;624808;-65
2021/12/28 11:05:17;;;;;;;44.77;22.40;;;;;;;;;;770161;182;639325;-64
2021/12/28 11:07:49;;;;;;;39.13;20.97;;;;;;;;;;770355;182;637353;-63
2021/12/28 11:10:15;;;;;;;42.90;22.23;;;;;;;;;;770037;182;630135;-63
2021/12/28 11:12:42;;;;;;;39.63;22.10;;;;;;;;;;769436;182;637839;-63
2021/12/28 11:15:08;;;;;;;39.67;22.60;;;;;;;;;;770925;183;642779;-64
2021/12/28 11:17:34;;;;;;;39.43;23.57;;;;;;;;;;770666;183;626885;-64
2021/12/28 11:20:00;;;;;;;42.53;23.27;;;;;;;;;;770652;179;630493;-63
2021/12/28 11:22:26;;;;;;;40.40;22.43;;;;;;;;;;771235;183;651816;-64
2021/12/28 11:24:52;;;;;;;39.17;24.80;;;;;;;;;;772921;182;625055;-64
2021/12/28 11:27:19;;;;;;;32.03;20.17;;;;;;;;;;771400;183;637773;-64
2021/12/28 11:29:45;;;;;;;35.97;19.70;;;;;;;;;;770293;182;622205;-64
2021/12/28 11:32:13;;;;;;;37.88;21.85;;;;;;;;;;766992;182;912802;-64
2021/12/28 11:34:39;;;;;;;29.87;16.80;;;;;;;;;;773758;183;629021;-63
2021/12/28 11:37:05;;;;;;;32.73;17.80;;;;;;;;;;769629;183;618947;-64
2021/12/28 11:39:30;;;;;;;32.10;18.83;;;;;;;;;;770252;183;616898;-64
2021/12/28 11:41:56;;;;;;;35.90;18.77;;;;;;;;;;772292;183;624305;-64
2021/12/28 11:44:22;;;;;;;33.53;16.77;;;;;;;;;;771300;183;639584;-64
2021/12/28 11:46:48;;;;;;;27.77;15.77;;;;;;;;;;759433;182;635426;-64
2021/12/28 11:49:15;;;;;;;27.13;16.70;;;;;;;;;;769469;182;916582;-64
2021/12/28 11:51:40;;;;;;;26.50;16.40;;;;;;;;;;773302;182;615240;-64
2021/12/28 11:54:06;;;;;;;26.67;16.47;;;;;;;;;;771649;182;626593;-63
2021/12/28 11:56:32;;;;;;;32.10;16.20;;;;;;;;;;772721;182;633186;-64
2021/12/28 11:58:58;;;;;;;31.70;18.47;;;;;;;;;;776160;182;626895;-65
2021/12/28 12:01:39;;;;;;;28.37;17.17;;;;;;;;;;771574;182;627818;-64
2021/12/28 12:04:20;;;;;;;30.20;17.53;;;;;;;;;;771636;182;615358;-63
2021/12/28 12:06:52;;;;;;;33.33;16.53;;;;;;;;;;765720;183;760294;-64
2021/12/28 12:09:17;;;;;;;36.10;17.47;;;;;;;;;;769791;182;614757;-64
2021/12/28 12:11:58;;;;;;;25.60;15.67;;;;;;;;;;768383;181;639055;-64
2021/12/28 12:14:24;;;;;;;27.83;18.15;;;;;;;;;;765498;183;622947;-64
2021/12/28 12:16:50;;;;;;;26.27;14.77;;;;;;;;;;762280;183;624974;-64
2021/12/28 12:19:16;;;;;;;23.97;15.20;;;;;;;;;;766215;183;625327;-65
2021/12/28 12:21:42;;;;;;;21.37;13.20;;;;;;;;;;767499;182;918494;-64
2021/12/28 12:24:08;;;;;;;29.10;15.27;;;;;;;;;;774823;182;918715;-65
2021/12/28 12:26:34;;;;;;;23.87;14.33;;;;;;;;;;769633;182;918200;-63
2021/12/28 12:29:00;;;;;;;19.77;13.50;;;;;;;;;;770924;182;627054;-66
2021/12/28 12:31:26;;;;;;;19.60;12.50;;;;;;;;;;775780;182;634277;-64
2021/12/28 12:33:51;;;;;;;24.97;13.67;;;;;;;;;;770474;182;643742;-64
2021/12/28 12:36:18;;;;;;;24.00;14.17;;;;;;;;;;767737;182;622925;-64
2021/12/28 12:38:44;;;;;;;26.08;14.57;;;;;;;;;;770824;182;626353;-62
2021/12/28 12:41:14;;;;;;;18.77;12.33;;;;;;;;;;775583;180;625012;-64
2021/12/28 12:43:40;;;;;;;22.20;13.43;;;;;;;;;;769248;182;745056;-65
2021/12/28 12:46:06;;;;;;;21.23;11.97;;;;;;;;;;770305;182;633681;-64
2021/12/28 12:48:47;;;;;;;22.73;14.80;;;;;;;;;;774445;182;617858;-63
2021/12/28 12:51:28;;;;;;;25.40;14.70;;;;;;;;;;767707;183;618162;-64
2021/12/28 12:54:12;;;;;;;21.53;12.47;;;;;;;;;;774794;183;627414;-64
2021/12/28 12:56:35;;;;;;;20.70;13.37;;;;;;;;;;773851;179;634483;-64
2021/12/28 12:59:02;;;;;;;20.43;14.50;;;;;;;;;;771528;182;628662;-64
2021/12/28 13:01:43;;;;;;;24.17;14.97;;;;;;;;;;772445;181;623828;-63
2021/12/28 13:04:15;;;;;;;24.23;12.70;;;;;;;;;;769299;182;626826;-64
2021/12/28 13:06:55;;;;;;;23.63;13.83;;;;;;;;;;769670;182;789090;-62
2021/12/28 13:09:21;;;;;;;24.40;16.13;;;;;;;;;;766583;182;634476;-63
2021/12/28 13:11:47;;;;;;;21.00;14.73;;;;;;;;;;770913;182;619905;-64
2021/12/28 13:14:13;;;;;;;22.63;14.93;;;;;;;;;;771485;182;626737;-62
2021/12/28 13:16:39;;;;;;;21.30;14.30;;;;;;;;;;771788;182;639371;-63
2021/12/28 13:19:07;;;;;;;24.67;15.30;;;;;;;;;;773075;182;686874;-64
2021/12/28 13:21:33;;;;;;;23.40;15.57;;;;;;;;;;768840;182;627244;-64
2021/12/28 13:24:06;;;;;;;22.50;14.43;;;;;;;;;;770178;182;632876;-62
2021/12/28 13:26:38;;;;;;;27.13;14.80;;;;;;;;;;771452;182;622752;-64
2021/12/28 13:29:03;;;;;;;23.03;15.37;;;;;;;;;;770449;183;615719;-64
2021/12/28 13:31:29;;;;;;;26.23;16.13;;;;;;;;;;769543;183;636256;-64
2021/12/28 13:33:58;;;;;;;24.60;14.90;;;;;;;;;;772373;182;629814;-62
2021/12/28 13:36:24;;;;;;;22.60;11.53;;;;;;;;;;772632;182;625835;-64
2021/12/28 13:38:50;;;;;;;23.37;14.50;;;;;;;;;;768391;183;616800;-64
2021/12/28 13:41:15;;;;;;;24.77;13.80;;;;;;;;;;767099;182;918825;-63
2021/12/28 13:43:41;;;;;;;24.70;16.20;;;;;;;;;;771160;182;631149;-64
2021/12/28 13:46:08;;;;;;;23.53;14.83;;;;;;;;;;775093;183;641390;-64
2021/12/28 13:48:33;;;;;;;28.77;17.43;;;;;;;;;;769429;182;653859;-64